Time;durP1;ratioP1;P1;durP2;ratioP2;P2;SDS_P1;SDS_P2;PMS_P1;PMS_P2;Temp;Humidity;BMP_temperature;BMP_pressure;BME280_temperature;BME280_humidity;BME280_pressure;Samples;Min_cycle;Max_cycle;Signal;HPM_P1;HPM_P2
2021/12/28 00:01:01;;;;;;;3.10;1.67;;;9.00;99.90;;;;;;5075767;28;20472;-57
2021/12/28 00:03:28;;;;;;;3.43;2.37;;;9.00;99.90;;;;;;5076102;28;20448;-57
2021/12/28 00:05:55;;;;;;;2.93;2.10;;;8.90;99.90;;;;;;5075847;28;20992;-57
2021/12/28 00:08:22;;;;;;;3.93;1.93;;;8.90;99.90;;;;;;5076310;28;20433;-57
2021/12/28 00:10:50;;;;;;;3.30;1.80;;;9.00;99.90;;;;;;5075216;28;20933;-57
2021/12/28 00:13:19;;;;;;;2.47;2.13;;;8.90;99.90;;;;;;5075758;28;20535;-57
2021/12/28 00:16:01;;;;;;;5.23;2.17;;;9.00;99.90;;;;;;5075268;28;20444;-57
2021/12/28 00:18:29;;;;;;;2.70;1.90;;;9.00;99.90;;;;;;5075756;28;20888;-57
2021/12/28 00:20:58;;;;;;;3.67;1.90;;;8.90;99.90;;;;;;5075735;28;20472;-57
2021/12/28 00:23:30;;;;;;;7.03;2.23;;;8.90;99.90;;;;;;5075268;28;20452;-57
2021/12/28 00:25:58;;;;;;;5.10;3.03;;;9.00;99.90;;;;;;5075752;28;20429;-57
2021/12/28 00:28:27;;;;;;;2.63;1.63;;;9.00;99.90;;;;;;5075252;28;20460;-57
2021/12/28 00:30:55;;;;;;;6.17;2.30;;;9.00;99.90;;;;;;5075430;28;20468;-57
2021/12/28 00:33:25;;;;;;;8.30;2.40;;;9.00;99.90;;;;;;5075003;28;20448;-57
2021/12/28 00:35:53;;;;;;;2.60;1.97;;;9.00;99.90;;;;;;5075541;28;20446;-57
2021/12/28 00:38:23;;;;;;;4.30;2.50;;;9.00;99.90;;;;;;5075065;28;20504;-57
2021/12/28 00:40:52;;;;;;;4.70;2.40;;;8.90;99.90;;;;;;5074939;28;20477;-58
2021/12/28 00:43:20;;;;;;;3.43;2.10;;;9.00;99.90;;;;;;5075023;28;20536;-57
2021/12/28 00:45:49;;;;;;;5.17;2.30;;;8.90;99.90;;;;;;5074849;28;20448;-57
2021/12/28 00:48:17;;;;;;;6.90;3.63;;;8.90;99.90;;;;;;5074771;28;20484;-57
2021/12/28 00:50:46;;;;;;;4.73;1.83;;;8.80;99.90;;;;;;5075126;28;20845;-57
2021/12/28 00:53:13;;;;;;;4.70;2.93;;;8.80;99.90;;;;;;5074738;28;20563;-57
2021/12/28 00:55:41;;;;;;;2.20;2.00;;;8.90;99.90;;;;;;5074997;28;20444;-57
2021/12/28 00:58:08;;;;;;;2.87;2.27;;;9.00;99.90;;;;;;5074894;28;20476;-57
2021/12/28 01:00:38;;;;;;;6.00;2.20;;;9.10;99.90;;;;;;5074636;28;20462;-57
2021/12/28 01:03:08;;;;;;;4.53;2.50;;;9.00;99.90;;;;;;5074416;28;20451;-57
2021/12/28 01:05:36;;;;;;;5.47;1.97;;;9.10;99.90;;;;;;5074502;28;20933;-57
2021/12/28 01:08:03;;;;;;;10.47;2.90;;;9.10;99.90;;;;;;5074879;28;20429;-57
2021/12/28 01:10:33;;;;;;;3.60;2.40;;;9.10;99.90;;;;;;5074332;28;20480;-57
2021/12/28 01:13:00;;;;;;;4.07;2.63;;;9.10;99.90;;;;;;5074261;28;20480;-57
2021/12/28 01:15:29;;;;;;;5.43;2.20;;;9.10;99.90;;;;;;5074769;28;20448;-57
2021/12/28 01:17:56;;;;;;;5.43;2.43;;;9.10;99.90;;;;;;5074575;28;20451;-57
2021/12/28 01:20:26;;;;;;;7.80;2.40;;;9.10;99.90;;;;;;5074063;28;20470;-57
2021/12/28 01:22:53;;;;;;;4.37;2.43;;;9.20;99.90;;;;;;5074026;28;20834;-57
2021/12/28 01:25:21;;;;;;;5.97;2.90;;;9.20;99.90;;;;;;5074346;28;20448;-57
2021/12/28 01:27:48;;;;;;;7.23;2.47;;;9.10;99.90;;;;;;5074007;28;20451;-57
2021/12/28 01:30:17;;;;;;;9.73;2.30;;;9.10;99.90;;;;;;5074406;28;20478;-57
2021/12/28 01:32:45;;;;;;;10.53;2.63;;;9.20;99.90;;;;;;5074612;28;20483;-57
2021/12/28 01:35:16;;;;;;;4.80;2.80;;;9.20;99.90;;;;;;5074056;28;20448;-57
2021/12/28 01:37:45;;;;;;;4.77;2.57;;;9.30;99.90;;;;;;5074380;28;20428;-57
2021/12/28 01:40:17;;;;;;;4.40;1.93;;;9.30;99.90;;;;;;5074298;28;20468;-57
2021/12/28 01:43:06;;;;;;;3.53;2.60;;;9.20;99.90;;;;;;5074291;28;20431;-57
2021/12/28 01:45:40;;;;;;;4.53;1.80;;;9.30;99.90;;;;;;5074125;28;20954;-58
2021/12/28 01:48:08;;;;;;;4.17;2.03;;;9.30;99.90;;;;;;5073964;28;20433;-57
2021/12/28 01:50:36;;;;;;;4.10;2.17;;;9.20;99.90;;;;;;5073764;28;20494;-57
2021/12/28 01:53:05;;;;;;;3.90;2.40;;;9.10;99.90;;;;;;5073951;28;20574;-57
2021/12/28 01:55:33;;;;;;;7.97;2.80;;;9.20;99.90;;;;;;5074074;28;20536;-56
2021/12/28 01:58:00;;;;;;;6.33;2.33;;;9.20;99.90;;;;;;5073608;28;20539;-56
2021/12/28 02:00:28;;;;;;;6.90;2.90;;;9.10;99.90;;;;;;5073636;28;20486;-58
2021/12/28 02:02:55;;;;;;;5.67;2.40;;;9.10;99.90;;;;;;5073713;28;20437;-56
2021/12/28 02:05:23;;;;;;;5.43;2.33;;;9.10;99.90;;;;;;5073658;28;20548;-56
2021/12/28 02:07:50;;;;;;;5.60;3.07;;;9.10;99.90;;;;;;5073454;28;20444;-56
2021/12/28 02:10:20;;;;;;;4.03;2.90;;;9.00;99.90;;;;;;5073296;28;20474;-56
2021/12/28 02:12:47;;;;;;;4.10;2.37;;;9.00;99.90;;;;;;5073229;28;20469;-56
2021/12/28 02:15:15;;;;;;;5.17;2.20;;;9.00;99.90;;;;;;5073371;28;20935;-56
2021/12/28 02:17:43;;;;;;;5.53;2.53;;;9.00;99.90;;;;;;5073871;28;20470;-56
2021/12/28 02:20:14;;;;;;;4.87;2.00;;;9.00;99.90;;;;;;5073377;28;20468;-57
2021/12/28 02:22:42;;;;;;;4.03;2.20;;;9.00;99.90;;;;;;5073584;28;20433;-56
2021/12/28 02:25:11;;;;;;;2.63;2.23;;;8.90;99.90;;;;;;5073594;28;20978;-56
2021/12/28 02:27:39;;;;;;;5.53;3.33;;;9.00;99.90;;;;;;5073535;28;20454;-57
2021/12/28 02:30:09;;;;;;;7.27;2.70;;;9.00;99.90;;;;;;5073061;28;21315;-56
2021/12/28 02:32:39;;;;;;;7.17;3.40;;;9.10;99.90;;;;;;5073174;28;20469;-57
2021/12/28 02:35:08;;;;;;;5.80;2.30;;;9.10;99.90;;;;;;5073408;28;20448;-57
2021/12/28 02:37:37;;;;;;;4.37;2.83;;;9.10;99.90;;;;;;5073559;28;20444;-57
2021/12/28 02:40:06;;;;;;;8.77;2.87;;;9.00;99.90;;;;;;5072341;28;20468;-57
2021/12/28 02:42:34;;;;;;;4.90;2.53;;;9.00;99.90;;;;;;5072915;28;20440;-58
2021/12/28 02:45:09;;;;;;;4.33;2.57;;;9.00;99.90;;;;;;5073116;28;20543;-56
2021/12/28 02:47:37;;;;;;;5.17;2.40;;;9.00;99.90;;;;;;5072905;28;20519;-56
2021/12/28 02:50:06;;;;;;;7.63;2.40;;;9.00;99.90;;;;;;5072983;28;20453;-56
2021/12/28 02:52:36;;;;;;;4.53;2.73;;;9.00;99.90;;;;;;5073166;28;20573;-56
2021/12/28 02:55:06;;;;;;;4.73;2.83;;;9.00;99.90;;;;;;5072780;28;20452;-56
2021/12/28 02:57:33;;;;;;;9.03;2.80;;;9.10;99.90;;;;;;5072800;28;20488;-56
2021/12/28 03:00:00;;;;;;;7.17;2.53;;;9.10;99.90;;;;;;5072841;28;20551;-56
2021/12/28 03:02:28;;;;;;;5.47;2.90;;;9.00;99.90;;;;;;5073125;28;20449;-56
2021/12/28 03:04:55;;;;;;;8.13;2.10;;;9.00;99.90;;;;;;5072837;28;20838;-56
2021/12/28 03:07:23;;;;;;;5.07;2.30;;;9.00;99.90;;;;;;5072569;28;20953;-56
2021/12/28 03:09:50;;;;;;;4.73;3.00;;;8.90;99.90;;;;;;5073038;28;20484;-56
2021/12/28 03:12:19;;;;;;;7.23;2.53;;;8.80;99.90;;;;;;5072399;28;20575;-56
2021/12/28 03:14:49;;;;;;;5.33;2.60;;;8.80;99.90;;;;;;5072603;28;20890;-56
2021/12/28 03:17:16;;;;;;;5.30;2.60;;;8.90;99.90;;;;;;5072723;28;20428;-56
2021/12/28 03:19:43;;;;;;;3.83;2.20;;;8.90;99.90;;;;;;5072463;28;20848;-56
2021/12/28 03:22:10;;;;;;;4.30;2.23;;;8.90;99.90;;;;;;5072663;28;20445;-56
2021/12/28 03:24:37;;;;;;;5.90;2.43;;;8.90;99.90;;;;;;5072677;28;20936;-56
2021/12/28 03:27:05;;;;;;;2.33;1.67;;;9.00;99.90;;;;;;5072854;28;20448;-56
2021/12/28 03:29:34;;;;;;;3.60;2.23;;;9.00;99.90;;;;;;5072522;28;20939;-56
2021/12/28 03:32:01;;;;;;;5.80;2.77;;;8.90;99.90;;;;;;5072713;28;20559;-56
2021/12/28 03:34:28;;;;;;;9.03;4.23;;;8.90;99.90;;;;;;5072499;28;20485;-56
2021/12/28 03:36:55;;;;;;;9.97;2.47;;;8.90;99.90;;;;;;5072299;28;20989;-56
2021/12/28 03:39:22;;;;;;;2.90;2.20;;;9.00;99.90;;;;;;5072482;28;20535;-56
2021/12/28 03:41:49;;;;;;;3.10;2.10;;;9.00;99.90;;;;;;5072558;28;20464;-56
2021/12/28 03:44:16;;;;;;;7.90;2.47;;;9.10;99.90;;;;;;5072335;28;20441;-57
2021/12/28 03:46:45;;;;;;;5.90;2.60;;;8.90;99.90;;;;;;5072438;28;20949;-56
2021/12/28 03:49:12;;;;;;;10.97;3.37;;;8.70;99.90;;;;;;5072732;28;20927;-56
2021/12/28 03:51:39;;;;;;;8.40;2.50;;;8.80;99.90;;;;;;5074420;28;20558;-57
2021/12/28 03:54:06;;;;;;;3.13;2.67;;;8.80;99.90;;;;;;5075816;28;20480;-56
2021/12/28 03:56:33;;;;;;;3.90;2.20;;;8.70;99.90;;;;;;5076233;28;20452;-57
2021/12/28 03:59:00;;;;;;;6.77;2.50;;;8.70;99.90;;;;;;5075747;28;20942;-57
2021/12/28 04:01:28;;;;;;;4.13;2.30;;;8.80;99.90;;;;;;5076005;28;20471;-56
2021/12/28 04:03:56;;;;;;;8.40;3.13;;;8.70;99.90;;;;;;5076034;28;20448;-57
2021/12/28 04:06:24;;;;;;;5.03;2.13;;;8.80;99.90;;;;;;5076098;28;20506;-56
2021/12/28 04:08:52;;;;;;;6.30;2.00;;;8.80;99.90;;;;;;5075615;28;20432;-57
2021/12/28 04:11:28;;;;;;;7.20;3.20;;;8.80;99.90;;;;;;5075444;28;20491;-57
2021/12/28 04:14:00;;;;;;;12.00;2.90;;;8.80;99.90;;;;;;5075782;28;20468;-57
2021/12/28 04:16:29;;;;;;;7.77;2.40;;;8.90;99.90;;;;;;5075789;28;20444;-57
2021/12/28 04:18:58;;;;;;;4.00;2.00;;;8.90;99.90;;;;;;5075811;28;20444;-57
2021/12/28 04:21:26;;;;;;;4.33;2.70;;;8.90;99.90;;;;;;5075697;28;20557;-57
2021/12/28 04:23:53;;;;;;;5.93;2.90;;;9.00;99.90;;;;;;5075496;28;20954;-56
2021/12/28 04:26:21;;;;;;;7.50;2.50;;;9.00;99.90;;;;;;5075345;28;20449;-57
2021/12/28 04:28:48;;;;;;;10.47;3.17;;;9.10;99.90;;;;;;5075327;28;20459;-57
2021/12/28 04:31:15;;;;;;;2.23;1.90;;;9.10;99.90;;;;;;5075430;28;20556;-57
2021/12/28 04:33:43;;;;;;;4.97;2.73;;;9.10;99.90;;;;;;5075283;28;20492;-56
2021/12/28 04:36:13;;;;;;;5.20;2.27;;;9.10;99.90;;;;;;5075273;28;20555;-56
2021/12/28 04:38:42;;;;;;;6.00;2.17;;;9.20;99.90;;;;;;5075391;28;20867;-57
2021/12/28 04:41:10;;;;;;;5.30;2.30;;;9.10;99.90;;;;;;5074931;28;20468;-57
2021/12/28 04:43:38;;;;;;;3.97;2.17;;;9.20;99.90;;;;;;5075240;28;20451;-56
2021/12/28 04:46:05;;;;;;;6.23;2.20;;;9.20;99.90;;;;;;5075143;28;20804;-56
2021/12/28 04:48:33;;;;;;;4.07;2.13;;;9.20;99.90;;;;;;5074915;28;20640;-56
2021/12/28 04:51:00;;;;;;;5.77;2.30;;;9.20;99.90;;;;;;5075080;28;20907;-57
2021/12/28 04:53:29;;;;;;;4.40;1.90;;;9.20;99.90;;;;;;5075100;28;20559;-57
2021/12/28 04:55:56;;;;;;;4.10;1.87;;;9.10;99.90;;;;;;5074769;28;20535;-56
2021/12/28 04:58:23;;;;;;;5.57;2.07;;;9.10;99.90;;;;;;5074813;28;20429;-56
2021/12/28 05:00:53;;;;;;;5.37;2.50;;;9.10;99.90;;;;;;5074648;28;20975;-56
2021/12/28 05:03:21;;;;;;;3.53;2.20;;;9.00;99.90;;;;;;5073988;28;20467;-57
2021/12/28 05:05:50;;;;;;;2.57;2.33;;;9.00;99.90;;;;;;5074844;28;20563;-56
2021/12/28 05:08:19;;;;;;;7.93;2.37;;;9.10;99.90;;;;;;5074640;28;20967;-56
2021/12/28 05:10:48;;;;;;;3.60;2.20;;;9.10;99.90;;;;;;5074177;28;20484;-56
2021/12/28 05:13:16;;;;;;;6.00;2.87;;;9.10;99.90;;;;;;5074614;28;20484;-57
2021/12/28 05:15:44;;;;;;;3.53;2.10;;;9.10;99.90;;;;;;5074647;28;20493;-56
2021/12/28 05:18:12;;;;;;;4.07;2.00;;;9.10;99.90;;;;;;5074734;28;20452;-57
2021/12/28 05:20:43;;;;;;;10.27;2.20;;;9.10;99.90;;;;;;5074541;28;20457;-56
2021/12/28 05:23:11;;;;;;;3.37;2.17;;;9.10;99.90;;;;;;5074433;28;20444;-57
2021/12/28 05:25:39;;;;;;;4.93;2.10;;;9.10;99.90;;;;;;5074485;28;20440;-56
2021/12/28 05:28:08;;;;;;;3.17;2.17;;;9.10;99.90;;;;;;5074349;28;20539;-57
2021/12/28 05:30:36;;;;;;;3.87;2.10;;;9.10;99.90;;;;;;5073941;28;20471;-56
2021/12/28 05:33:03;;;;;;;4.13;2.30;;;9.10;99.90;;;;;;5074063;28;20554;-57
2021/12/28 05:35:30;;;;;;;4.07;2.10;;;9.00;99.90;;;;;;5074127;28;20451;-57
2021/12/28 05:37:57;;;;;;;3.87;2.00;;;9.10;99.90;;;;;;5074157;28;20752;-57
2021/12/28 05:40:25;;;;;;;7.53;2.70;;;9.00;99.90;;;;;;5073933;28;20468;-57
2021/12/28 05:42:52;;;;;;;2.10;1.90;;;9.00;99.90;;;;;;5073795;28;20444;-56
2021/12/28 05:45:21;;;;;;;4.20;2.27;;;8.90;99.90;;;;;;5073985;28;20538;-56
2021/12/28 05:47:48;;;;;;;7.67;3.20;;;9.00;99.90;;;;;;5073923;28;20894;-57
2021/12/28 05:50:15;;;;;;;4.30;2.13;;;9.10;99.90;;;;;;5073975;28;20464;-57
2021/12/28 05:52:42;;;;;;;2.57;1.80;;;9.10;99.90;;;;;;5073438;28;20734;-57
2021/12/28 05:55:10;;;;;;;5.47;2.27;;;9.10;99.90;;;;;;5073812;28;20445;-57
2021/12/28 05:57:37;;;;;;;4.47;2.70;;;9.10;99.90;;;;;;5073590;28;20535;-57
2021/12/28 06:00:06;;;;;;;5.20;1.90;;;9.10;99.90;;;;;;5073683;28;20471;-58
2021/12/28 06:02:35;;;;;;;3.20;2.40;;;9.10;99.90;;;;;;5073409;28;20448;-56
2021/12/28 06:05:02;;;;;;;2.60;2.27;;;9.20;99.90;;;;;;5073516;28;20451;-57
2021/12/28 06:07:29;;;;;;;1.90;1.80;;;9.20;99.90;;;;;;5073240;28;20931;-57
2021/12/28 06:09:57;;;;;;;3.13;2.00;;;9.20;99.90;;;;;;5073567;28;20451;-57
2021/12/28 06:12:25;;;;;;;4.83;2.90;;;9.30;99.90;;;;;;5073180;28;20490;-57
2021/12/28 06:14:52;;;;;;;4.23;3.53;;;9.20;99.90;;;;;;5072211;28;20484;-57
2021/12/28 06:17:19;;;;;;;3.10;2.23;;;9.20;99.90;;;;;;5073203;28;20444;-57
2021/12/28 06:19:48;;;;;;;4.87;2.40;;;9.20;99.90;;;;;;5073225;28;20448;-57
2021/12/28 06:22:16;;;;;;;3.43;2.00;;;9.20;99.90;;;;;;5073466;28;20456;-57
2021/12/28 06:24:43;;;;;;;5.30;2.90;;;9.20;99.90;;;;;;5073559;28;20440;-57
2021/12/28 06:27:10;;;;;;;3.17;2.60;;;9.40;99.90;;;;;;5073383;28;20966;-57
2021/12/28 06:29:37;;;;;;;2.80;2.30;;;9.30;99.90;;;;;;5073919;28;20805;-56
2021/12/28 06:32:05;;;;;;;6.57;2.50;;;9.30;99.90;;;;;;5073405;28;20448;-56
2021/12/28 06:34:33;;;;;;;4.60;2.47;;;9.30;99.90;;;;;;5073255;28;20477;-57
2021/12/28 06:37:01;;;;;;;2.43;1.80;;;9.30;99.90;;;;;;5073452;28;20452;-56
2021/12/28 06:39:28;;;;;;;8.10;2.60;;;9.20;99.90;;;;;;5073081;28;20459;-57
2021/12/28 06:41:55;;;;;;;2.20;2.00;;;9.20;99.90;;;;;;5073157;28;20538;-56
2021/12/28 06:44:23;;;;;;;3.00;2.40;;;9.20;99.90;;;;;;5073229;28;20535;-56
2021/12/28 06:46:50;;;;;;;3.00;2.00;;;9.20;99.90;;;;;;5072926;28;20803;-56
2021/12/28 06:49:18;;;;;;;6.30;1.97;;;9.20;99.90;;;;;;5073123;28;20445;-56
2021/12/28 06:51:45;;;;;;;3.47;2.03;;;9.20;99.90;;;;;;5073224;28;20538;-56
2021/12/28 06:54:14;;;;;;;2.80;1.60;;;9.20;99.90;;;;;;5073059;28;20480;-56
2021/12/28 06:56:41;;;;;;;4.37;2.63;;;9.20;99.90;;;;;;5072788;28;20949;-57
2021/12/28 06:59:08;;;;;;;3.60;1.90;;;9.20;99.90;;;;;;5073217;28;20478;-58
2021/12/28 07:01:36;;;;;;;2.67;1.90;;;9.20;99.90;;;;;;5072566;28;20468;-57
2021/12/28 07:04:03;;;;;;;2.67;2.00;;;9.20;99.90;;;;;;5072932;28;20444;-57
2021/12/28 07:06:30;;;;;;;2.43;1.70;;;9.20;99.90;;;;;;5072730;28;20456;-57
2021/12/28 07:08:57;;;;;;;2.13;2.03;;;9.20;99.90;;;;;;5072679;28;20935;-57
2021/12/28 07:11:26;;;;;;;2.50;1.73;;;9.30;99.90;;;;;;5072442;28;20867;-57
2021/12/28 07:13:53;;;;;;;1.90;1.80;;;9.40;99.90;;;;;;5072742;28;20480;-57
2021/12/28 07:16:21;;;;;;;1.70;1.60;;;9.40;99.90;;;;;;5073058;28;20475;-57
2021/12/28 07:18:48;;;;;;;1.77;1.30;;;9.30;99.90;;;;;;5072526;28;20452;-57
2021/12/28 07:21:15;;;;;;;1.67;1.57;;;9.40;99.90;;;;;;5072912;28;20563;-57
2021/12/28 07:23:42;;;;;;;1.73;1.63;;;9.40;99.90;;;;;;5072906;28;20501;-57
2021/12/28 07:26:09;;;;;;;1.77;1.67;;;9.50;99.90;;;;;;5074035;28;20444;-57
2021/12/28 07:28:38;;;;;;;1.90;1.63;;;9.60;99.90;;;;;;5076639;28;20455;-57
2021/12/28 07:31:05;;;;;;;1.40;1.30;;;9.60;99.90;;;;;;5076684;28;20601;-57
2021/12/28 07:33:32;;;;;;;1.50;1.40;;;9.60;99.90;;;;;;5076426;28;20487;-57
2021/12/28 07:35:59;;;;;;;1.70;1.60;;;9.60;99.90;;;;;;5076750;28;20462;-58
2021/12/28 07:38:27;;;;;;;1.43;1.33;;;9.60;99.90;;;;;;5076931;28;20507;-59
2021/12/28 07:40:54;;;;;;;1.67;1.20;;;9.60;99.90;;;;;;5076137;28;20470;-58
2021/12/28 07:43:21;;;;;;;1.40;1.27;;;9.60;99.90;;;;;;5076219;28;20444;-58
2021/12/28 07:45:51;;;;;;;1.30;1.20;;;9.60;99.90;;;;;;5076438;28;20546;-56
2021/12/28 07:48:18;;;;;;;1.57;1.47;;;9.60;99.90;;;;;;5075857;28;20935;-56
2021/12/28 07:50:45;;;;;;;1.30;1.20;;;9.70;99.90;;;;;;5075862;28;20463;-56
2021/12/28 07:53:13;;;;;;;1.87;1.60;;;9.70;99.90;;;;;;5076267;28;20986;-56
2021/12/28 07:55:40;;;;;;;1.40;1.30;;;9.70;99.90;;;;;;5076017;28;20480;-56
2021/12/28 07:58:07;;;;;;;1.50;1.40;;;9.70;99.90;;;;;;5076015;28;20471;-56
2021/12/28 08:00:34;;;;;;;1.60;1.50;;;9.70;99.90;;;;;;5075846;28;20475;-57
2021/12/28 08:03:04;;;;;;;1.50;1.40;;;9.70;99.90;;;;;;5075682;28;20429;-56
2021/12/28 08:05:32;;;;;;;1.50;1.40;;;9.80;99.90;;;;;;5075603;28;20984;-56
2021/12/28 08:07:59;;;;;;;2.20;2.00;;;9.80;99.90;;;;;;5075737;28;20428;-56
2021/12/28 08:10:27;;;;;;;2.13;1.30;;;9.80;99.90;;;;;;5075125;28;20488;-56
2021/12/28 08:12:56;;;;;;;1.60;1.30;;;9.70;99.90;;;;;;5075695;28;20455;-56
2021/12/28 08:15:25;;;;;;;1.20;1.10;;;9.60;99.90;;;;;;5075468;28;20480;-55
2021/12/28 08:17:53;;;;;;;1.30;1.20;;;9.60;99.90;;;;;;5075782;28;20444;-56
2021/12/28 08:20:22;;;;;;;1.40;1.30;;;9.60;99.90;;;;;;5075169;28;20981;-55
2021/12/28 08:22:50;;;;;;;3.10;1.40;;;9.60;99.90;;;;;;5075247;28;20452;-55
2021/12/28 08:25:20;;;;;;;2.27;1.20;;;9.60;99.90;;;;;;5075665;28;20441;-55
2021/12/28 08:27:48;;;;;;;1.40;1.30;;;9.60;99.90;;;;;;5075165;28;20451;-56
2021/12/28 08:30:16;;;;;;;1.40;1.30;;;9.60;99.90;;;;;;5075112;28;20548;-58
2021/12/28 08:32:43;;;;;;;1.40;1.30;;;9.60;99.90;;;;;;5075641;28;20448;-56
2021/12/28 08:35:12;;;;;;;2.10;1.30;;;9.60;99.90;;;;;;5075019;28;20568;-56
2021/12/28 08:37:40;;;;;;;1.40;1.30;;;9.60;99.90;;;;;;5074495;28;20455;-56
2021/12/28 08:40:09;;;;;;;1.30;1.20;;;9.70;99.90;;;;;;5075235;28;20467;-56
2021/12/28 08:42:36;;;;;;;1.30;1.20;;;9.70;99.90;;;;;;5074948;28;20505;-56
2021/12/28 08:45:05;;;;;;;2.87;1.30;;;9.70;99.90;;;;;;5075127;28;20456;-56
2021/12/28 08:47:32;;;;;;;1.37;1.27;;;9.80;99.90;;;;;;5075198;28;20448;-56
2021/12/28 08:50:00;;;;;;;1.20;1.10;;;9.80;99.90;;;;;;5074798;28;20555;-56
2021/12/28 08:52:28;;;;;;;1.33;1.17;;;9.80;99.90;;;;;;5075000;28;20444;-57
2021/12/28 08:54:57;;;;;;;1.33;1.23;;;9.80;99.90;;;;;;5074687;28;20506;-56
2021/12/28 08:57:24;;;;;;;1.50;1.40;;;9.80;99.90;;;;;;5074902;28;20448;-56
2021/12/28 08:59:51;;;;;;;1.30;1.20;;;9.90;99.90;;;;;;5074465;28;20539;-56
2021/12/28 09:02:19;;;;;;;1.20;1.10;;;10.00;99.90;;;;;;5074758;28;20535;-56
2021/12/28 09:04:46;;;;;;;1.17;1.07;;;10.00;99.90;;;;;;5074976;28;20444;-56
2021/12/28 09:07:14;;;;;;;1.33;1.23;;;10.00;99.90;;;;;;5074401;28;20460;-57
2021/12/28 09:09:41;;;;;;;1.50;1.40;;;10.00;99.90;;;;;;5074224;28;20454;-56
2021/12/28 09:12:11;;;;;;;1.70;1.10;;;10.10;99.90;;;;;;5073192;28;21042;-56
2021/12/28 09:14:39;;;;;;;1.27;1.10;;;10.10;99.90;;;;;;5074797;28;20839;-56
2021/12/28 09:17:07;;;;;;;2.07;1.20;;;10.00;99.90;;;;;;5074371;28;20453;-57
2021/12/28 09:19:34;;;;;;;1.20;1.10;;;10.10;99.90;;;;;;5074634;28;20487;-57
2021/12/28 09:22:02;;;;;;;1.37;1.17;;;;;;;;;;5074282;28;20492;-57
2021/12/28 09:24:29;;;;;;;2.23;1.30;;;10.20;99.90;;;;;;5074008;28;20491;-57
2021/12/28 09:26:56;;;;;;;1.23;1.13;;;10.30;99.90;;;;;;5074138;28;20539;-56
2021/12/28 09:29:29;;;;;;;1.30;1.10;;;10.30;99.90;;;;;;5073890;28;20444;-57
2021/12/28 09:31:56;;;;;;;1.20;1.10;;;10.40;99.90;;;;;;5073820;28;20469;-57
2021/12/28 09:34:24;;;;;;;1.30;1.20;;;10.40;99.90;;;;;;5073951;28;20480;-57
2021/12/28 09:36:51;;;;;;;1.50;1.20;;;10.40;99.90;;;;;;5074196;28;20546;-57
2021/12/28 09:39:22;;;;;;;1.43;1.33;;;10.50;99.90;;;;;;5073581;28;20889;-57
2021/12/28 09:41:51;;;;;;;1.30;1.20;;;;;;;;;;5073504;28;20910;-57
2021/12/28 09:44:18;;;;;;;1.77;1.50;;;10.60;99.90;;;;;;5073834;28;20523;-57
2021/12/28 09:46:47;;;;;;;2.20;1.10;;;10.70;99.90;;;;;;5073954;28;20444;-57
2021/12/28 09:49:14;;;;;;;1.30;1.20;;;10.70;99.90;;;;;;5073261;28;20953;-58
2021/12/28 09:51:42;;;;;;;1.40;1.30;;;10.70;99.90;;;;;;5073674;28;20550;-58
2021/12/28 09:54:09;;;;;;;1.20;1.10;;;10.70;99.90;;;;;;5073311;28;20547;-58
2021/12/28 09:56:37;;;;;;;2.40;1.43;;;10.90;99.90;;;;;;5073508;28;20927;-58
2021/12/28 09:59:05;;;;;;;1.40;1.30;;;11.00;99.90;;;;;;5073660;28;20452;-58
2021/12/28 10:01:32;;;;;;;1.70;1.60;;;11.00;99.90;;;;;;5073581;28;20559;-57
2021/12/28 10:04:01;;;;;;;1.23;1.13;;;11.20;99.90;;;;;;5073568;28;20445;-57
2021/12/28 10:06:30;;;;;;;1.37;1.27;;;11.30;99.90;;;;;;5073396;28;20514;-58
2021/12/28 10:09:06;;;;;;;1.47;1.37;;;11.30;99.90;;;;;;5073680;28;20801;-57
2021/12/28 10:11:34;;;;;;;2.00;1.40;;;11.30;99.90;;;;;;5073260;28;20944;-58
2021/12/28 10:14:16;;;;;;;1.40;1.30;;;11.40;99.90;;;;;;5072968;28;20436;-59
2021/12/28 10:16:46;;;;;;;1.40;1.20;;;11.40;99.90;;;;;;5073611;28;20439;-56
2021/12/28 10:19:47;;;;;;;1.40;1.30;;;11.30;99.90;;;;;;5073873;28;20445;-56
2021/12/28 10:22:26;;;;;;;1.30;1.20;;;11.40;99.90;;;;;;5030929;28;20440;-57
2021/12/28 10:24:56;;;;;;;2.03;1.83;;;11.40;99.90;;;;;;5030975;28;20426;-57
2021/12/28 10:27:25;;;;;;;1.30;1.20;;;11.60;99.90;;;;;;5054560;28;20523;-56
2021/12/28 10:29:53;;;;;;;1.40;1.30;;;11.70;99.90;;;;;;5073048;28;20503;-57
2021/12/28 10:32:24;;;;;;;1.30;1.20;;;11.70;99.90;;;;;;5073419;28;20440;-57
2021/12/28 10:34:57;;;;;;;1.40;1.30;;;11.90;99.90;;;;;;5073122;28;20543;-57
2021/12/28 10:37:32;;;;;;;1.20;1.10;;;11.90;99.90;;;;;;5073127;28;20539;-57
2021/12/28 10:40:01;;;;;;;1.30;1.20;;;12.10;99.90;;;;;;5073191;28;22283;-57
2021/12/28 10:42:48;;;;;;;1.50;1.40;;;12.10;99.90;;;;;;5072798;28;20474;-57
2021/12/28 10:45:18;;;;;;;1.53;1.43;;;12.40;99.90;;;;;;5072820;28;20519;-57
2021/12/28 10:47:46;;;;;;;1.50;1.40;;;12.50;99.90;;;;;;5073260;28;20539;-57
2021/12/28 10:50:29;;;;;;;1.20;1.10;;;;;;;;;;5072850;28;20511;-58
2021/12/28 10:53:18;;;;;;;2.00;1.20;;;13.00;99.90;;;;;;5072806;28;20784;-57
2021/12/28 10:55:47;;;;;;;1.33;1.23;;;13.30;99.90;;;;;;5072760;28;20967;-57
2021/12/28 10:58:30;;;;;;;1.67;1.20;;;13.40;99.90;;;;;;5072810;28;20446;-57
2021/12/28 11:01:06;;;;;;;1.60;1.40;;;13.30;99.90;;;;;;5074003;28;20472;-57
2021/12/28 11:03:36;;;;;;;1.73;1.40;;;13.60;99.90;;;;;;5076933;28;20428;-56
2021/12/28 11:06:17;;;;;;;1.50;1.40;;;14.10;99.90;;;;;;5076950;28;20809;-57
2021/12/28 11:08:47;;;;;;;1.10;1.00;;;14.40;99.90;;;;;;5076704;28;20420;-57
2021/12/28 11:11:16;;;;;;;4.13;1.13;;;14.80;99.90;;;;;;5076351;28;21082;-56
2021/12/28 11:13:43;;;;;;;2.80;1.67;;;15.40;99.90;;;;;;5076368;28;20927;-56
2021/12/28 11:16:13;;;;;;;1.40;1.30;;;15.00;99.90;;;;;;5076610;28;20487;-57
2021/12/28 11:18:43;;;;;;;1.50;1.20;;;15.60;99.90;;;;;;5076741;28;20476;-57
2021/12/28 11:21:18;;;;;;;1.80;1.30;;;16.40;99.90;;;;;;5076683;28;20511;-57
2021/12/28 11:23:48;;;;;;;1.70;1.20;;;16.50;99.90;;;;;;5076533;28;20429;-57
2021/12/28 11:26:19;;;;;;;1.40;1.30;;;16.00;99.90;;;;;;5076563;28;20440;-57
2021/12/28 11:28:59;;;;;;;1.20;1.00;;;15.70;99.90;;;;;;5076558;28;20432;-57
2021/12/28 11:31:29;;;;;;;1.50;1.30;;;15.40;99.90;;;;;;5076573;28;20504;-57
2021/12/28 11:34:03;;;;;;;1.40;1.30;;;15.40;99.90;;;;;;5076071;28;20448;-56
2021/12/28 11:36:34;;;;;;;1.10;1.00;;;14.60;99.90;;;;;;5076041;28;20567;-56
2021/12/28 11:39:04;;;;;;;1.77;1.30;;;14.20;99.90;;;;;;5076014;28;20486;-57
2021/12/28 11:41:32;;;;;;;1.50;1.40;;;14.30;99.90;;;;;;5076438;28;20510;-57
2021/12/28 11:44:00;;;;;;;1.13;1.03;;;14.20;99.90;;;;;;5075856;28;20468;-57
2021/12/28 11:46:27;;;;;;;1.30;1.10;;;13.90;99.90;;;;;;5076104;28;20482;-57
2021/12/28 11:48:55;;;;;;;1.30;1.10;;;14.00;99.90;;;;;;5076302;28;20458;-57
2021/12/28 11:51:24;;;;;;;1.33;1.10;;;13.80;99.90;;;;;;5075926;28;20551;-57
2021/12/28 11:53:55;;;;;;;1.37;1.27;;;13.50;99.90;;;;;;5075993;28;20452;-57
2021/12/28 11:56:27;;;;;;;1.30;1.20;;;13.40;99.90;;;;;;5075821;28;20566;-57
2021/12/28 11:59:04;;;;;;;1.57;1.30;;;13.20;99.90;;;;;;5076333;28;20432;-57
2021/12/28 12:01:59;;;;;;;1.30;1.20;;;13.20;99.90;;;;;;5076257;28;20476;-57
2021/12/28 12:04:47;;;;;;;1.50;1.40;;;13.00;99.90;;;;;;5076013;28;20499;-57
2021/12/28 12:07:31;;;;;;;1.30;1.20;;;12.80;99.90;;;;;;5076226;28;20495;-57
2021/12/28 12:10:32;;;;;;;1.47;1.37;;;12.70;99.90;;;;;;5075936;28;20511;-57
2021/12/28 12:13:24;;;;;;;1.40;1.30;;;12.70;99.90;;;;;;5075783;28;20806;-58
2021/12/28 12:15:55;;;;;;;1.43;1.30;;;12.60;99.90;;;;;;5075461;28;20460;-58
2021/12/28 12:18:25;;;;;;;1.40;1.20;;;12.40;99.90;;;;;;5075672;28;20425;-56
2021/12/28 12:20:56;;;;;;;1.60;1.20;;;12.50;99.90;;;;;;5075820;28;20507;-56
2021/12/28 12:23:26;;;;;;;1.70;1.60;;;12.60;99.90;;;;;;5075551;28;20435;-56
2021/12/28 12:26:00;;;;;;;1.40;1.30;;;12.40;99.90;;;;;;5075425;28;20431;-56
2021/12/28 12:28:42;;;;;;;2.77;1.40;;;12.40;99.90;;;;;;5075905;28;20524;-56
2021/12/28 12:31:22;;;;;;;2.10;1.90;;;12.40;99.90;;;;;;5075259;28;20503;-56
2021/12/28 12:33:49;;;;;;;1.70;1.60;;;12.20;99.90;;;;;;5075436;28;20515;-56
2021/12/28 12:36:29;;;;;;;1.57;1.43;;;12.40;99.90;;;;;;5075050;28;20579;-56
2021/12/28 12:38:57;;;;;;;4.17;1.60;;;12.50;99.90;;;;;;5075262;28;20464;-56
2021/12/28 12:41:38;;;;;;;1.83;1.40;;;12.50;99.90;;;;;;5074870;28;20464;-56
2021/12/28 12:44:11;;;;;;;2.30;2.10;;;12.50;99.90;;;;;;5075283;28;20780;-56
2021/12/28 12:46:43;;;;;;;1.90;1.40;;;12.60;99.90;;;;;;5075421;28;20443;-56
2021/12/28 12:49:20;;;;;;;1.77;1.40;;;12.50;99.90;;;;;;5075448;28;20789;-56
2021/12/28 12:51:50;;;;;;;1.97;1.33;;;12.50;99.90;;;;;;5075268;28;20525;-57
2021/12/28 12:54:23;;;;;;;1.40;1.30;;;12.60;99.90;;;;;;5074991;28;20444;-56
2021/12/28 12:57:25;;;;;;;1.87;1.60;;;12.60;99.90;;;;;;5074916;28;20468;-57
2021/12/28 12:59:59;;;;;;;1.73;1.63;;;12.60;99.90;;;;;;5067403;28;20536;-57
2021/12/28 13:02:36;;;;;;;1.40;1.30;;;12.60;99.90;;;;;;5074935;28;20424;-57
2021/12/28 13:05:23;;;;;;;1.77;1.67;;;12.60;99.90;;;;;;5074545;28;20434;-57
2021/12/28 13:07:52;;;;;;;1.40;1.30;;;12.60;99.90;;;;;;5074920;28;20456;-57